Airfield :
LOGIN :

Register | Disclaimer

   EN    FR    IT 

 










Legend :    VFR   Marginal VFR   IFR   Intensive IFR   Very Intensive IFR
Visi :
Ceiling :
>= 8 km
>= 3000ft
5 to 8 km
1000 to 3000 ft
1500m to 5 km
500 to 1000 ft
800 to 1500m
200 to 500 ft
< 800m
< 200 ft
Symbols :   Thunderstorms  Fog  Heavy snow  Heavy precipitations  Wind > 20 kt
SIGMETs :     Misc.  Thunderstorms  Icing  Turbulence  Mountain Waves  Volcanic Ashes






- Airport Elevation : 187 ft


LPMR - Monte Real Air Base

CURRENT METAR :
  • 261700Z 28006KT 2000 -DZ BR OVC002 15/15 Q1025

EXPIRED METARs :
  • 261600Z 27005KT 240V300 3000 -DZ BR OVC003 15/15 Q1025
  • 261500Z 28006KT 0700 -DZ FG OVC002 15/15 Q1024
  • 261400Z 25007KT 1800 BR SCT002 OVC004 15/15 Q1024

TAF AMD TAF LPMR
Valid from the 26 at 15:00 until the 27 at 12:00 UTC


261510Z 2615/2712 27008KT 0700 FG OVC002
TEMPO 2615/2623 2000 -DZ BR BKN004
BECMG 2618/2621 VRB02KT
PROB40 2623/2709 0200 FG OVC001
BECMG 2709/2711 9999 NSW SCT014 BKN020



MET'MAP, your aeronautical weather chart ! - Copyright ORBIFLY December 2007 - Disclaimer

ORBIFLY MET'MAP TEAM :

Programming & Development : Alexandra Zaïnal
Concept & original design : Baudouin d'Aumeries
Assistance for programming : Marc-Olivier Méhu
Technical & hardware support : Manuel Goepfert

Contact : metmap@orbifly.com




SOURCES & CREDITS :

   NOAA